createdAt,value
2023-01-20T00:01:33.650Z,25.77
2023-01-20T00:04:01.033Z,26.08
2023-01-20T00:06:30.466Z,22.70
2023-01-20T00:09:00.590Z,23.67
2023-01-20T00:11:28.606Z,24.25
2023-01-20T00:13:56.923Z,24.33
2023-01-20T00:16:24.831Z,19.80
2023-01-20T00:18:52.350Z,21.85
2023-01-20T00:21:19.449Z,23.65
2023-01-20T00:23:47.218Z,16.77
2023-01-20T00:26:16.409Z,18.83
2023-01-20T00:28:44.403Z,21.08
2023-01-20T00:31:12.443Z,21.08
2023-01-20T00:33:39.493Z,18.05
2023-01-20T00:36:06.801Z,20.15
2023-01-20T00:38:35.468Z,23.00
2023-01-20T00:41:02.221Z,19.70
2023-01-20T00:43:29.236Z,20.20
2023-01-20T00:45:55.972Z,20.15
2023-01-20T00:48:22.814Z,20.73
2023-01-20T00:50:49.708Z,20.73
2023-01-20T00:53:17.004Z,21.67
2023-01-20T00:55:43.867Z,16.55
2023-01-20T00:58:10.626Z,18.83
2023-01-20T01:00:38.735Z,17.52
2023-01-20T01:03:05.751Z,16.65
2023-01-20T01:05:33.595Z,19.48
2023-01-20T01:08:00.649Z,18.25
2023-01-20T01:10:31.932Z,23.90
2023-01-20T01:13:02.975Z,18.13
2023-01-20T01:15:32.105Z,21.90
2023-01-20T01:18:01.448Z,19.65
2023-01-20T01:20:29.092Z,19.30
2023-01-20T01:22:59.074Z,23.65
2023-01-20T01:25:25.919Z,21.40
2023-01-20T01:27:54.900Z,20.48
2023-01-20T01:30:25.914Z,16.67
2023-01-20T01:32:54.426Z,18.70
2023-01-20T01:35:21.187Z,17.88
2023-01-20T01:37:47.946Z,15.98
2023-01-20T01:40:14.883Z,18.60
2023-01-20T01:42:42.853Z,23.65
2023-01-20T01:45:13.609Z,15.32
2023-01-20T01:48:08.776Z,20.75
2023-01-20T01:50:42.362Z,19.80
2023-01-20T01:53:10.064Z,16.20
2023-01-20T01:55:43.092Z,19.58
2023-01-20T01:58:14.639Z,20.42
2023-01-20T02:00:44.050Z,19.27
2023-01-20T02:03:12.164Z,21.95
2023-01-20T02:05:41.193Z,18.73
2023-01-20T02:08:08.536Z,19.20
2023-01-20T02:10:35.467Z,19.90
2023-01-20T02:13:02.846Z,16.27
2023-01-20T02:15:50.071Z,21.98
2023-01-20T02:18:52.669Z,15.85
2023-01-20T02:21:56.904Z,19.58
2023-01-20T02:24:38.869Z,21.73
2023-01-20T02:27:11.339Z,19.70
2023-01-20T02:29:46.971Z,18.98
2023-01-20T02:32:32.556Z,17.95
2023-01-20T02:35:08.760Z,18.73
2023-01-20T02:38:13.316Z,17.15
2023-01-20T02:41:01.612Z,19.70
2023-01-20T02:44:07.867Z,15.82
2023-01-20T02:46:40.540Z,18.48
2023-01-20T02:49:23.145Z,16.13
2023-01-20T02:52:06.384Z,16.83
2023-01-20T02:54:38.364Z,21.65
2023-01-20T02:57:12.535Z,18.52
2023-01-20T02:59:47.932Z,16.73
2023-01-20T03:02:20.292Z,17.42
2023-01-20T03:04:52.332Z,16.55
2023-01-20T03:07:24.340Z,19.10
2023-01-20T03:09:53.616Z,15.10
2023-01-20T03:12:41.696Z,18.48
2023-01-20T03:15:10.233Z,15.75
2023-01-20T03:17:37.544Z,17.08
2023-01-20T03:20:05.015Z,18.02
2023-01-20T03:22:32.048Z,16.85
2023-01-20T03:24:59.789Z,19.33
2023-01-20T03:27:28.508Z,17.35
2023-01-20T03:29:55.252Z,19.42
2023-01-20T03:32:29.142Z,16.38
2023-01-20T03:34:56.465Z,16.67
2023-01-20T03:37:23.596Z,15.20
2023-01-20T03:39:51.308Z,21.75
2023-01-20T03:42:29.927Z,19.90
2023-01-20T03:45:01.721Z,19.10
2023-01-20T03:47:48.724Z,18.45
2023-01-20T03:51:02.958Z,19.58
2023-01-20T03:53:45.539Z,14.07
2023-01-20T03:56:20.597Z,15.40
2023-01-20T03:58:51.031Z,16.98
2023-01-20T04:01:23.638Z,16.77
2023-01-20T04:03:53.606Z,15.65
2023-01-20T04:06:25.128Z,17.45
2023-01-20T04:09:00.940Z,15.38
2023-01-20T04:11:27.951Z,19.92
2023-01-20T04:13:55.204Z,17.10
2023-01-20T04:16:22.980Z,18.95
2023-01-20T04:18:52.035Z,18.90
2023-01-20T04:21:35.798Z,16.67
2023-01-20T04:24:05.251Z,20.15
2023-01-20T04:26:32.024Z,12.35
2023-01-20T04:28:58.800Z,15.00
2023-01-20T04:31:31.206Z,12.82
2023-01-20T04:33:58.329Z,14.48
2023-01-20T04:36:25.123Z,17.77
2023-01-20T04:38:51.979Z,11.60
2023-01-20T04:41:18.772Z,16.67
2023-01-20T04:46:29.375Z,19.55
2023-01-20T04:48:58.582Z,19.48
2023-01-20T04:51:31.967Z,13.20
2023-01-20T04:53:59.931Z,16.92
2023-01-20T04:56:26.956Z,15.25
2023-01-20T04:58:53.740Z,19.27
2023-01-20T05:01:23.301Z,19.02
2023-01-20T05:03:50.083Z,20.80
2023-01-20T05:06:18.817Z,22.33
2023-01-20T05:08:45.740Z,20.63
2023-01-20T05:11:15.064Z,22.60
2023-01-20T05:13:44.516Z,20.55
2023-01-20T05:16:11.526Z,18.17
2023-01-20T05:18:38.362Z,17.88
2023-01-20T05:21:07.947Z,17.75
2023-01-20T05:23:39.843Z,16.70
2023-01-20T05:26:06.604Z,16.80
2023-01-20T05:28:33.365Z,19.15
2023-01-20T05:31:00.213Z,17.23
2023-01-20T05:33:26.997Z,13.65
2023-01-20T05:35:55.919Z,14.50
2023-01-20T05:38:25.649Z,16.85
2023-01-20T05:41:03.207Z,15.15
2023-01-20T05:43:30.063Z,16.42
2023-01-20T05:45:56.825Z,17.67
2023-01-20T05:48:23.671Z,18.60
2023-01-20T05:50:53.453Z,16.33
2023-01-20T05:53:23.141Z,13.55
2023-01-20T05:55:51.303Z,12.35
2023-01-20T05:58:18.074Z,16.90
2023-01-20T06:00:44.863Z,21.00
2023-01-20T06:03:11.588Z,17.10
2023-01-20T06:05:38.359Z,14.77
2023-01-20T06:08:05.435Z,15.45
2023-01-20T06:10:33.178Z,16.83
2023-01-20T06:13:00.100Z,28.17
2023-01-20T06:15:26.935Z,27.70
2023-01-20T06:17:56.912Z,25.13
2023-01-20T06:20:23.719Z,19.27
2023-01-20T06:22:55.290Z,33.55
2023-01-20T06:25:22.094Z,33.83
2023-01-20T06:27:51.607Z,26.50
2023-01-20T06:30:21.471Z,23.67
2023-01-20T06:32:48.485Z,26.42
2023-01-20T06:35:18.347Z,29.65
2023-01-20T06:37:46.693Z,39.00
2023-01-20T06:40:15.036Z,54.10
2023-01-20T06:42:41.916Z,55.22
2023-01-20T06:45:09.491Z,43.00
2023-01-20T06:47:37.999Z,43.88
2023-01-20T06:50:05.185Z,44.53
2023-01-20T06:52:34.585Z,43.83
2023-01-20T06:55:01.325Z,37.50
2023-01-20T06:57:28.073Z,41.38
2023-01-20T06:59:57.840Z,43.88
2023-01-20T07:02:32.028Z,36.15
2023-01-20T07:05:00.021Z,37.20
2023-01-20T07:07:27.040Z,31.48
2023-01-20T07:09:56.900Z,32.92
2023-01-20T07:12:26.913Z,30.92
2023-01-20T07:14:56.052Z,29.55
2023-01-20T07:17:24.042Z,33.38
2023-01-20T07:19:55.716Z,30.52
2023-01-20T07:24:49.181Z,21.08
2023-01-20T07:27:15.961Z,20.88
2023-01-20T07:29:44.830Z,26.63
2023-01-20T07:32:11.585Z,25.25
2023-01-20T07:34:39.940Z,22.27
2023-01-20T07:37:08.733Z,21.05
2023-01-20T07:39:38.330Z,20.52
2023-01-20T07:42:05.242Z,23.67
2023-01-20T07:44:32.996Z,23.88
2023-01-20T07:46:59.778Z,23.63
2023-01-20T07:49:27.083Z,25.15
2023-01-20T07:51:53.815Z,26.73
2023-01-20T07:54:20.671Z,20.92
2023-01-20T07:56:47.867Z,26.70
2023-01-20T07:59:14.687Z,20.90
2023-01-20T08:01:45.777Z,32.50
2023-01-20T08:04:13.228Z,30.88
2023-01-20T08:06:40.226Z,32.75
2023-01-20T08:09:09.705Z,29.13
2023-01-20T08:11:36.436Z,27.92
2023-01-20T08:14:03.208Z,32.88
2023-01-20T08:16:30.044Z,34.15
2023-01-20T08:18:56.912Z,32.10
2023-01-20T08:21:28.569Z,32.15
2023-01-20T08:23:56.528Z,37.50
2023-01-20T08:26:27.839Z,33.33
2023-01-20T08:28:58.288Z,29.27
2023-01-20T08:31:27.370Z,28.70
2023-01-20T08:33:56.035Z,27.50
2023-01-20T08:36:29.349Z,28.83
2023-01-20T08:38:58.891Z,27.13
2023-01-20T08:41:34.040Z,27.08
2023-01-20T08:44:03.816Z,30.45
2023-01-20T08:46:30.877Z,26.65
2023-01-20T08:48:57.965Z,29.23
2023-01-20T08:51:34.982Z,26.65
2023-01-20T08:54:03.167Z,22.50
2023-01-20T08:56:30.326Z,24.13
2023-01-20T08:58:58.601Z,24.52
2023-01-20T09:01:28.272Z,28.60
2023-01-20T09:04:05.432Z,27.77
2023-01-20T09:06:45.482Z,28.77
2023-01-20T09:09:16.540Z,28.02
2023-01-20T09:11:52.722Z,26.85
2023-01-20T09:14:24.510Z,29.38
2023-01-20T09:19:18.563Z,27.60
2023-01-20T09:21:46.747Z,27.52
2023-01-20T09:24:13.724Z,28.15
2023-01-20T09:26:41.810Z,27.13
2023-01-20T09:29:14.883Z,26.50
2023-01-20T09:31:52.498Z,25.63
2023-01-20T09:34:26.415Z,23.85
2023-01-20T09:37:21.616Z,24.23
2023-01-20T09:40:07.798Z,26.27
2023-01-20T09:43:21.658Z,25.88
2023-01-20T09:45:56.725Z,23.17
2023-01-20T09:49:06.076Z,24.08
2023-01-20T09:52:05.317Z,22.02
2023-01-20T09:54:41.673Z,20.98
2023-01-20T09:57:10.692Z,19.60
2023-01-20T10:00:11.519Z,23.80
2023-01-20T10:02:41.311Z,23.00
2023-01-20T10:05:12.529Z,21.13
2023-01-20T10:07:51.503Z,20.75
2023-01-20T10:10:22.137Z,18.88
2023-01-20T10:12:51.867Z,28.88
2023-01-20T10:15:29.307Z,21.83
2023-01-20T10:18:03.268Z,19.05
2023-01-20T10:20:48.818Z,20.40
2023-01-20T10:23:39.165Z,17.17
2023-01-20T10:26:30.466Z,100.50
2023-01-20T10:29:02.316Z,52.10
2023-01-20T10:31:35.334Z,78.43
2023-01-20T10:34:12.109Z,81.68
2023-01-20T10:36:43.972Z,65.43
2023-01-20T10:39:24.956Z,50.67
2023-01-20T10:42:18.540Z,44.70
2023-01-20T10:44:47.133Z,74.45
2023-01-20T10:47:20.897Z,28.05
2023-01-20T10:50:15.384Z,37.45
2023-01-20T10:53:18.493Z,33.35
2023-01-20T10:56:17.188Z,39.08
2023-01-20T10:58:51.045Z,50.13
2023-01-20T11:01:19.254Z,51.50
2023-01-20T11:03:48.968Z,44.92
2023-01-20T11:06:29.997Z,39.28
2023-01-20T11:08:57.469Z,34.35
2023-01-20T11:11:25.634Z,30.73
2023-01-20T11:13:53.314Z,25.70
2023-01-20T11:16:26.616Z,26.00
2023-01-20T11:19:03.303Z,25.55
2023-01-20T11:21:33.501Z,21.35
2023-01-20T11:24:00.759Z,23.77
2023-01-20T11:26:36.866Z,27.55
2023-01-20T11:29:50.512Z,28.17
2023-01-20T11:32:45.808Z,24.33
2023-01-20T11:35:27.125Z,26.48
2023-01-20T11:37:56.052Z,24.00
2023-01-20T11:40:28.117Z,33.65
2023-01-20T11:42:55.208Z,26.75
2023-01-20T11:45:24.624Z,23.25
2023-01-20T11:48:16.850Z,23.75
2023-01-20T11:51:19.918Z,21.42
2023-01-20T11:53:48.977Z,20.17
2023-01-20T11:56:25.155Z,20.55
2023-01-20T11:59:01.932Z,19.60
2023-01-20T12:01:31.387Z,22.70
2023-01-20T12:07:41.706Z,25.75
2023-01-20T12:10:19.561Z,22.45
2023-01-20T12:12:53.471Z,18.95
2023-01-20T12:15:31.417Z,20.38
2023-01-20T12:18:19.737Z,19.23
2023-01-20T12:20:55.678Z,18.92
2023-01-20T12:23:31.507Z,25.65
2023-01-20T12:26:02.477Z,33.25
2023-01-20T12:29:16.282Z,32.03
2023-01-20T12:31:46.911Z,33.47
2023-01-20T12:34:16.167Z,32.22
2023-01-20T12:37:06.379Z,25.50
2023-01-20T12:39:47.944Z,26.25
2023-01-20T12:42:41.256Z,24.13
2023-01-20T12:45:18.993Z,19.35
2023-01-20T12:48:12.787Z,18.90
2023-01-20T12:51:05.595Z,19.73
2023-01-20T12:54:10.122Z,16.48
2023-01-20T12:57:21.227Z,18.83
2023-01-20T13:00:06.968Z,16.58
2023-01-20T13:03:09.022Z,16.60
2023-01-20T13:06:05.922Z,18.83
2023-01-20T13:08:50.126Z,16.92
2023-01-20T13:11:58.328Z,18.98
2023-01-20T13:14:43.081Z,16.63
2023-01-20T13:18:01.177Z,14.73
2023-01-20T13:20:28.966Z,18.23
2023-01-20T13:22:58.612Z,17.45
2023-01-20T13:25:35.123Z,11.68
2023-01-20T13:28:02.915Z,15.75
2023-01-20T13:30:51.588Z,18.30
2023-01-20T13:33:36.790Z,15.85
2023-01-20T13:36:21.456Z,20.48
2023-01-20T13:38:50.503Z,14.63
2023-01-20T13:41:49.425Z,12.88
2023-01-20T13:44:40.273Z,16.77
2023-01-20T13:49:49.732Z,10.15
2023-01-20T13:52:57.289Z,9.63
2023-01-20T13:55:31.096Z,12.50
2023-01-20T13:57:57.851Z,10.65
2023-01-20T14:00:24.642Z,11.80
2023-01-20T14:02:53.083Z,11.60
2023-01-20T14:05:28.604Z,14.95
2023-01-20T14:08:04.094Z,11.75
2023-01-20T14:10:30.937Z,15.93
2023-01-20T14:12:57.746Z,16.85
2023-01-20T14:15:32.254Z,15.75
2023-01-20T14:18:00.458Z,12.00
2023-01-20T14:20:29.065Z,13.75
2023-01-20T14:22:56.070Z,8.40
2023-01-20T14:25:26.903Z,10.18
2023-01-20T14:27:53.899Z,9.90
2023-01-20T14:30:26.031Z,12.13
2023-01-20T14:32:54.894Z,11.38
2023-01-20T14:35:29.042Z,13.15
2023-01-20T14:37:55.959Z,9.60
2023-01-20T14:40:35.351Z,10.52
2023-01-20T14:43:06.782Z,9.55
2023-01-20T14:45:54.883Z,7.28
2023-01-20T14:48:34.433Z,8.25
2023-01-20T14:51:22.680Z,9.77
2023-01-20T14:54:28.061Z,8.48
2023-01-20T14:56:55.108Z,10.02
2023-01-20T14:59:22.195Z,9.98
2023-01-20T15:01:57.987Z,10.23
2023-01-20T15:04:24.879Z,8.18
2023-01-20T15:06:58.992Z,8.57
2023-01-20T15:09:31.268Z,7.10
2023-01-20T15:12:31.741Z,6.65
2023-01-20T15:15:26.300Z,10.77
2023-01-20T15:18:11.361Z,7.25
2023-01-20T15:20:43.573Z,17.65
2023-01-20T15:23:32.576Z,11.82
2023-01-20T15:26:30.965Z,10.18
2023-01-20T15:28:58.705Z,11.18
2023-01-20T15:31:29.114Z,6.15
2023-01-20T15:33:55.912Z,6.20
2023-01-20T15:36:27.710Z,6.75
2023-01-20T15:41:21.635Z,6.32
2023-01-20T15:43:49.700Z,6.97
2023-01-20T15:46:17.341Z,12.38
2023-01-20T15:48:47.267Z,11.60
2023-01-20T15:51:16.715Z,9.27
2023-01-20T15:53:47.105Z,14.95
2023-01-20T15:56:23.990Z,14.80
2023-01-20T15:58:51.518Z,9.90
2023-01-20T16:01:25.674Z,10.27
2023-01-20T16:03:54.952Z,13.40
2023-01-20T16:06:26.730Z,11.82
2023-01-20T16:11:24.801Z,11.35
2023-01-20T16:13:51.552Z,10.40
2023-01-20T16:16:23.270Z,9.63
2023-01-20T16:21:19.189Z,11.40
2023-01-20T16:27:26.958Z,10.00
2023-01-20T16:30:00.117Z,13.73
2023-01-20T16:36:21.082Z,12.48
2023-01-20T16:39:33.234Z,12.82
2023-01-20T16:42:00.026Z,8.82
2023-01-20T16:44:26.874Z,9.68
2023-01-20T16:46:55.816Z,11.68
2023-01-20T16:49:23.836Z,8.85
2023-01-20T16:51:54.124Z,9.75
2023-01-20T16:54:21.129Z,24.15
2023-01-20T16:56:49.437Z,31.70
2023-01-20T16:59:20.221Z,33.13
2023-01-20T17:01:49.900Z,25.43
2023-01-20T17:04:16.740Z,12.57
2023-01-20T17:06:43.542Z,10.88
2023-01-20T17:09:11.376Z,12.35
2023-01-20T17:11:40.341Z,10.18
2023-01-20T17:14:09.474Z,9.75
2023-01-20T17:16:38.609Z,9.45
2023-01-20T17:19:11.036Z,12.20
2023-01-20T17:21:40.438Z,12.40
2023-01-20T17:24:07.849Z,15.05
2023-01-20T17:26:34.706Z,11.20
2023-01-20T17:29:04.473Z,11.40
2023-01-20T17:31:35.515Z,9.50
2023-01-20T17:34:18.086Z,11.02
2023-01-20T17:37:47.176Z,9.30
2023-01-20T17:40:14.817Z,7.40
2023-01-20T17:42:43.591Z,10.13
2023-01-20T17:45:10.928Z,12.63
2023-01-20T17:51:44.380Z,11.68
2023-01-20T17:54:11.239Z,7.53
2023-01-20T17:56:59.368Z,6.45
2023-01-20T17:59:26.318Z,9.43
2023-01-20T18:01:54.349Z,15.07
2023-01-20T18:04:21.283Z,11.77
2023-01-20T18:06:48.147Z,16.40
2023-01-20T18:09:15.118Z,15.68
2023-01-20T18:11:43.647Z,10.30
2023-01-20T18:14:12.395Z,10.15
2023-01-20T18:16:41.618Z,12.35
2023-01-20T18:19:14.281Z,13.57
2023-01-20T18:21:42.381Z,10.48
2023-01-20T18:24:11.916Z,13.63
2023-01-20T18:26:40.607Z,11.90
2023-01-20T18:29:16.463Z,9.70
2023-01-20T18:31:47.782Z,9.30
2023-01-20T18:34:15.838Z,7.88
2023-01-20T18:36:46.144Z,10.48
2023-01-20T18:39:24.068Z,7.88
2023-01-20T18:41:51.956Z,10.20
2023-01-20T18:44:19.519Z,10.00
2023-01-20T18:46:46.454Z,10.15
2023-01-20T18:49:14.637Z,8.73
2023-01-20T18:51:47.971Z,10.55
2023-01-20T18:54:19.650Z,8.95
2023-01-20T18:56:48.676Z,11.38
2023-01-20T18:59:15.531Z,7.55
2023-01-20T19:01:45.218Z,9.13
2023-01-20T19:04:15.606Z,12.35
2023-01-20T19:06:46.083Z,7.68
2023-01-20T19:09:15.662Z,6.00
2023-01-20T19:11:42.790Z,11.82
2023-01-20T19:14:15.990Z,11.30
2023-01-20T19:16:48.871Z,8.15
2023-01-20T19:19:17.811Z,10.07
2023-01-20T19:21:44.641Z,8.30
2023-01-20T19:24:18.792Z,10.98
2023-01-20T19:26:48.397Z,21.42
2023-01-20T19:29:17.238Z,100.07
2023-01-20T19:31:44.323Z,56.50
2023-01-20T19:34:14.191Z,24.70
2023-01-20T19:36:41.305Z,11.95
2023-01-20T19:39:08.436Z,9.20
2023-01-20T19:41:36.257Z,7.72
2023-01-20T19:44:08.454Z,6.18
2023-01-20T19:46:37.145Z,7.35
2023-01-20T19:49:04.625Z,6.28
2023-01-20T19:51:35.538Z,6.95
2023-01-20T19:54:03.241Z,7.15
2023-01-20T19:56:33.992Z,6.65
2023-01-20T19:59:01.397Z,6.28
2023-01-20T20:01:39.309Z,7.80
2023-01-20T20:04:12.779Z,4.78
2023-01-20T20:06:46.973Z,7.72
2023-01-20T20:09:17.982Z,16.05
2023-01-20T20:11:46.606Z,6.68
2023-01-20T20:14:15.979Z,6.93
2023-01-20T20:16:42.887Z,8.20
2023-01-20T20:19:13.638Z,7.68
2023-01-20T20:21:40.468Z,5.75
2023-01-20T20:24:09.055Z,5.47
2023-01-20T20:26:37.675Z,8.00
2023-01-20T20:29:11.206Z,5.88
2023-01-20T20:31:40.374Z,5.32
2023-01-20T20:34:14.106Z,7.80
2023-01-20T20:36:42.203Z,12.68
2023-01-20T20:39:12.411Z,6.47
2023-01-20T20:41:39.167Z,5.43
2023-01-20T20:44:06.103Z,8.35
2023-01-20T20:46:33.260Z,5.78
2023-01-20T20:49:01.189Z,8.65
2023-01-20T20:51:34.181Z,6.38
2023-01-20T20:54:05.154Z,12.52
2023-01-20T20:56:31.954Z,6.40
2023-01-20T20:59:03.609Z,9.43
2023-01-20T21:04:00.499Z,230.82
2023-01-20T21:06:28.375Z,205.85
2023-01-20T21:08:55.456Z,155.77
2023-01-20T21:11:25.050Z,154.10
2023-01-20T21:13:52.609Z,123.00
2023-01-20T21:16:22.906Z,46.75
2023-01-20T21:18:51.889Z,30.00
2023-01-20T21:21:19.582Z,24.33
2023-01-20T21:23:51.455Z,23.23
2023-01-20T21:28:52.922Z,17.38
2023-01-20T21:31:26.450Z,11.65
2023-01-20T21:33:55.388Z,12.90
2023-01-20T21:36:24.198Z,18.10
2023-01-20T21:38:51.106Z,14.27
2023-01-20T21:41:18.791Z,14.82
2023-01-20T21:44:05.616Z,10.65
2023-01-20T21:46:38.272Z,10.68
2023-01-20T21:49:24.753Z,6.80
2023-01-20T21:52:12.379Z,8.23
2023-01-20T21:54:41.012Z,6.25
2023-01-20T21:57:07.806Z,6.32
2023-01-20T21:59:34.550Z,7.25
2023-01-20T22:02:01.336Z,6.13
2023-01-20T22:04:28.163Z,22.60
2023-01-20T22:07:05.440Z,6.07
2023-01-20T22:09:32.220Z,6.05
2023-01-20T22:11:59.125Z,4.80
2023-01-20T22:14:26.134Z,5.13
2023-01-20T22:16:52.883Z,6.68
2023-01-20T22:19:19.661Z,5.65
2023-01-20T22:21:46.410Z,4.80
2023-01-20T22:24:13.267Z,7.50
2023-01-20T22:26:43.666Z,8.45
2023-01-20T22:29:11.216Z,6.97
2023-01-20T22:32:01.578Z,8.15
2023-01-20T22:34:29.069Z,6.40
2023-01-20T22:37:00.441Z,4.63
2023-01-20T22:39:29.162Z,4.97
2023-01-20T22:41:58.360Z,5.90
2023-01-20T22:44:27.048Z,33.88
2023-01-20T22:46:53.843Z,6.00
2023-01-20T22:49:20.665Z,3.63
2023-01-20T22:51:47.528Z,5.78
2023-01-20T22:54:14.275Z,4.85
2023-01-20T22:56:42.615Z,13.95
2023-01-20T22:59:11.817Z,4.30
2023-01-20T23:01:38.977Z,23.30
2023-01-20T23:04:06.563Z,7.22
2023-01-20T23:06:35.312Z,6.38
2023-01-20T23:09:05.397Z,4.90
2023-01-20T23:11:36.401Z,5.57
2023-01-20T23:14:06.535Z,4.15
2023-01-20T23:16:33.345Z,7.07
2023-01-20T23:19:00.132Z,5.63
2023-01-20T23:21:26.929Z,5.30
2023-01-20T23:23:56.343Z,6.25
2023-01-20T23:26:25.459Z,6.75
2023-01-20T23:28:53.856Z,4.97
2023-01-20T23:31:22.090Z,6.80
2023-01-20T23:33:49.035Z,8.63
2023-01-20T23:36:18.461Z,7.28
2023-01-20T23:38:46.764Z,6.03
2023-01-20T23:41:14.632Z,6.45
2023-01-20T23:43:42.164Z,10.50
2023-01-20T23:46:09.549Z,5.65
2023-01-20T23:48:36.568Z,6.90
2023-01-20T23:51:06.007Z,8.57
2023-01-20T23:53:37.383Z,8.07
2023-01-20T23:56:19.917Z,8.23
2023-01-20T23:58:46.797Z,5.80
